sensor_id;sensor_type;location;lat;lon;timestamp;temperature;humidity
10046;DHT22;5063;50.878;4.742;2023-07-13T00:01:28;14.70;99.90
10046;DHT22;5063;50.878;4.742;2023-07-13T00:03:56;14.70;99.90
10046;DHT22;5063;50.878;4.742;2023-07-13T00:06:22;14.70;99.90
10046;DHT22;5063;50.878;4.742;2023-07-13T00:08:47;14.70;99.90
10046;DHT22;5063;50.878;4.742;2023-07-13T00:11:15;14.80;99.90
10046;DHT22;5063;50.878;4.742;2023-07-13T00:13:42;14.80;99.90
10046;DHT22;5063;50.878;4.742;2023-07-13T00:16:09;14.80;99.90
10046;DHT22;5063;50.878;4.742;2023-07-13T00:18:35;14.80;99.90
10046;DHT22;5063;50.878;4.742;2023-07-13T00:21:02;14.70;99.90
10046;DHT22;5063;50.878;4.742;2023-07-13T00:23:39;14.70;99.90
10046;DHT22;5063;50.878;4.742;2023-07-13T00:26:07;14.60;99.90
10046;DHT22;5063;50.878;4.742;2023-07-13T00:28:33;14.60;99.90
10046;DHT22;5063;50.878;4.742;2023-07-13T00:30:59;14.60;99.90
10046;DHT22;5063;50.878;4.742;2023-07-13T00:33:26;14.50;99.90
10046;DHT22;5063;50.878;4.742;2023-07-13T00:35:54;14.50;99.90
10046;DHT22;5063;50.878;4.742;2023-07-13T00:38:20;14.40;99.90
10046;DHT22;5063;50.878;4.742;2023-07-13T00:40:46;14.40;99.90
10046;DHT22;5063;50.878;4.742;2023-07-13T00:43:30;14.40;99.90
10046;DHT22;5063;50.878;4.742;2023-07-13T00:48:26;14.40;99.90
10046;DHT22;5063;50.878;4.742;2023-07-13T00:50:55;14.40;99.90
10046;DHT22;5063;50.878;4.742;2023-07-13T00:53:22;14.40;99.90
10046;DHT22;5063;50.878;4.742;2023-07-13T00:55:50;14.20;99.90
10046;DHT22;5063;50.878;4.742;2023-07-13T00:58:16;14.30;99.90
10046;DHT22;5063;50.878;4.742;2023-07-13T01:00:42;14.40;99.90
10046;DHT22;5063;50.878;4.742;2023-07-13T01:03:08;14.40;99.90
10046;DHT22;5063;50.878;4.742;2023-07-13T01:05:35;14.40;99.90
10046;DHT22;5063;50.878;4.742;2023-07-13T01:08:03;14.40;99.90
10046;DHT22;5063;50.878;4.742;2023-07-13T01:10:31;14.40;99.90
10046;DHT22;5063;50.878;4.742;2023-07-13T01:13:05;14.50;99.90
10046;DHT22;5063;50.878;4.742;2023-07-13T01:15:37;14.40;99.90
10046;DHT22;5063;50.878;4.742;2023-07-13T01:18:05;14.40;99.90
10046;DHT22;5063;50.878;4.742;2023-07-13T01:20:32;14.40;99.90
10046;DHT22;5063;50.878;4.742;2023-07-13T01:23:10;14.30;99.90
10046;DHT22;5063;50.878;4.742;2023-07-13T01:25:37;14.30;99.90
10046;DHT22;5063;50.878;4.742;2023-07-13T01:28:05;14.30;99.90
10046;DHT22;5063;50.878;4.742;2023-07-13T01:30:31;14.30;99.90
10046;DHT22;5063;50.878;4.742;2023-07-13T01:32:58;14.20;99.90
10046;DHT22;5063;50.878;4.742;2023-07-13T01:35:24;14.20;99.90
10046;DHT22;5063;50.878;4.742;2023-07-13T01:37:51;14.20;99.90
10046;DHT22;5063;50.878;4.742;2023-07-13T01:40:17;14.10;99.90
10046;DHT22;5063;50.878;4.742;2023-07-13T01:42:43;14.10;99.90
10046;DHT22;5063;50.878;4.742;2023-07-13T01:45:09;14.10;99.90
10046;DHT22;5063;50.878;4.742;2023-07-13T01:47:34;14.00;99.90
10046;DHT22;5063;50.878;4.742;2023-07-13T01:50:00;14.00;99.90
10046;DHT22;5063;50.878;4.742;2023-07-13T01:52:26;14.10;99.90
10046;DHT22;5063;50.878;4.742;2023-07-13T01:54:51;14.00;99.90
10046;DHT22;5063;50.878;4.742;2023-07-13T01:57:17;14.00;99.90
10046;DHT22;5063;50.878;4.742;2023-07-13T01:59:43;14.00;99.90
10046;DHT22;5063;50.878;4.742;2023-07-13T02:02:08;14.00;99.90
10046;DHT22;5063;50.878;4.742;2023-07-13T02:04:34;14.00;99.90
10046;DHT22;5063;50.878;4.742;2023-07-13T02:07:00;14.00;99.90
10046;DHT22;5063;50.878;4.742;2023-07-13T02:09:26;14.00;99.90
10046;DHT22;5063;50.878;4.742;2023-07-13T02:11:51;14.00;99.90
10046;DHT22;5063;50.878;4.742;2023-07-13T02:14:17;13.90;99.90
10046;DHT22;5063;50.878;4.742;2023-07-13T02:16:43;13.90;99.90
10046;DHT22;5063;50.878;4.742;2023-07-13T02:19:09;13.90;99.90
10046;DHT22;5063;50.878;4.742;2023-07-13T02:21:34;13.90;99.90
10046;DHT22;5063;50.878;4.742;2023-07-13T02:24:01;13.90;99.90
10046;DHT22;5063;50.878;4.742;2023-07-13T02:26:27;13.90;99.90
10046;DHT22;5063;50.878;4.742;2023-07-13T02:28:53;13.80;99.90
10046;DHT22;5063;50.878;4.742;2023-07-13T02:31:19;13.80;99.90
10046;DHT22;5063;50.878;4.742;2023-07-13T02:33:45;13.80;99.90
10046;DHT22;5063;50.878;4.742;2023-07-13T02:36:12;13.90;99.90
10046;DHT22;5063;50.878;4.742;2023-07-13T02:38:39;13.80;99.90
10046;DHT22;5063;50.878;4.742;2023-07-13T02:41:06;13.80;99.90
10046;DHT22;5063;50.878;4.742;2023-07-13T02:43:33;13.80;99.90
10046;DHT22;5063;50.878;4.742;2023-07-13T02:45:59;13.80;99.90
10046;DHT22;5063;50.878;4.742;2023-07-13T02:48:34;13.80;99.90
10046;DHT22;5063;50.878;4.742;2023-07-13T02:51:00;13.80;99.90
10046;DHT22;5063;50.878;4.742;2023-07-13T02:53:26;13.90;99.90
10046;DHT22;5063;50.878;4.742;2023-07-13T02:55:52;13.90;99.90
10046;DHT22;5063;50.878;4.742;2023-07-13T02:58:18;14.00;99.90
10046;DHT22;5063;50.878;4.742;2023-07-13T03:00:47;14.00;99.90
10046;DHT22;5063;50.878;4.742;2023-07-13T03:03:16;14.10;99.90
10046;DHT22;5063;50.878;4.742;2023-07-13T03:05:44;14.10;99.90
10046;DHT22;5063;50.878;4.742;2023-07-13T03:08:10;14.00;99.90
10046;DHT22;5063;50.878;4.742;2023-07-13T03:10:36;14.10;99.90
10046;DHT22;5063;50.878;4.742;2023-07-13T03:13:02;14.10;99.90
10046;DHT22;5063;50.878;4.742;2023-07-13T03:15:28;14.10;99.90
10046;DHT22;5063;50.878;4.742;2023-07-13T03:17:54;14.10;99.90
10046;DHT22;5063;50.878;4.742;2023-07-13T03:20:19;14.20;99.90
10046;DHT22;5063;50.878;4.742;2023-07-13T03:22:45;14.20;99.90
10046;DHT22;5063;50.878;4.742;2023-07-13T03:25:11;14.20;99.90
10046;DHT22;5063;50.878;4.742;2023-07-13T03:27:37;14.20;99.90
10046;DHT22;5063;50.878;4.742;2023-07-13T03:30:04;14.30;99.90
10046;DHT22;5063;50.878;4.742;2023-07-13T03:32:31;14.40;99.90
10046;DHT22;5063;50.878;4.742;2023-07-13T03:34:57;14.30;99.90
10046;DHT22;5063;50.878;4.742;2023-07-13T03:37:22;14.30;99.90
10046;DHT22;5063;50.878;4.742;2023-07-13T03:39:49;14.30;99.90
10046;DHT22;5063;50.878;4.742;2023-07-13T03:42:15;14.30;99.90
10046;DHT22;5063;50.878;4.742;2023-07-13T03:44:41;14.30;99.90
10046;DHT22;5063;50.878;4.742;2023-07-13T03:47:07;14.30;99.90
10046;DHT22;5063;50.878;4.742;2023-07-13T03:49:34;14.30;99.90
10046;DHT22;5063;50.878;4.742;2023-07-13T03:52:00;14.30;99.90
10046;DHT22;5063;50.878;4.742;2023-07-13T03:54:26;14.30;99.90
10046;DHT22;5063;50.878;4.742;2023-07-13T03:56:52;14.30;99.90
10046;DHT22;5063;50.878;4.742;2023-07-13T03:59:18;14.30;99.90
10046;DHT22;5063;50.878;4.742;2023-07-13T04:01:44;14.40;99.90
10046;DHT22;5063;50.878;4.742;2023-07-13T04:04:10;14.40;99.90
10046;DHT22;5063;50.878;4.742;2023-07-13T04:06:35;14.50;99.90
10046;DHT22;5063;50.878;4.742;2023-07-13T04:09:03;14.50;99.90
10046;DHT22;5063;50.878;4.742;2023-07-13T04:11:31;14.60;99.90
10046;DHT22;5063;50.878;4.742;2023-07-13T04:13:57;14.60;99.90
10046;DHT22;5063;50.878;4.742;2023-07-13T04:16:23;14.70;99.90
10046;DHT22;5063;50.878;4.742;2023-07-13T04:18:50;14.80;99.90
10046;DHT22;5063;50.878;4.742;2023-07-13T04:21:16;14.80;99.90
10046;DHT22;5063;50.878;4.742;2023-07-13T04:23:42;14.90;99.90
10046;DHT22;5063;50.878;4.742;2023-07-13T04:26:09;15.00;99.90
10046;DHT22;5063;50.878;4.742;2023-07-13T04:28:34;15.10;99.90
10046;DHT22;5063;50.878;4.742;2023-07-13T04:31:01;15.10;99.90
10046;DHT22;5063;50.878;4.742;2023-07-13T04:33:27;15.20;99.90
10046;DHT22;5063;50.878;4.742;2023-07-13T04:35:54;15.30;99.90
10046;DHT22;5063;50.878;4.742;2023-07-13T04:38:24;15.30;99.90
10046;DHT22;5063;50.878;4.742;2023-07-13T04:40:50;15.40;99.90
10046;DHT22;5063;50.878;4.742;2023-07-13T04:43:17;15.40;99.90
10046;DHT22;5063;50.878;4.742;2023-07-13T04:45:42;15.50;99.90
10046;DHT22;5063;50.878;4.742;2023-07-13T04:48:08;15.50;99.90
10046;DHT22;5063;50.878;4.742;2023-07-13T04:50:36;15.60;99.90
10046;DHT22;5063;50.878;4.742;2023-07-13T04:53:02;15.60;99.90
10046;DHT22;5063;50.878;4.742;2023-07-13T04:55:29;15.60;99.90
10046;DHT22;5063;50.878;4.742;2023-07-13T04:57:57;15.70;99.90
10046;DHT22;5063;50.878;4.742;2023-07-13T05:00:24;15.60;99.90
10046;DHT22;5063;50.878;4.742;2023-07-13T05:02:50;15.60;99.90
10046;DHT22;5063;50.878;4.742;2023-07-13T05:05:16;15.70;99.90
10046;DHT22;5063;50.878;4.742;2023-07-13T05:07:42;15.80;99.90
10046;DHT22;5063;50.878;4.742;2023-07-13T05:10:08;15.90;99.90
10046;DHT22;5063;50.878;4.742;2023-07-13T05:12:34;16.10;99.90
10046;DHT22;5063;50.878;4.742;2023-07-13T05:15:00;16.20;99.90
10046;DHT22;5063;50.878;4.742;2023-07-13T05:17:26;16.40;99.90
10046;DHT22;5063;50.878;4.742;2023-07-13T05:19:52;16.60;99.90
10046;DHT22;5063;50.878;4.742;2023-07-13T05:22:17;16.60;99.90
10046;DHT22;5063;50.878;4.742;2023-07-13T05:24:43;16.70;99.90
10046;DHT22;5063;50.878;4.742;2023-07-13T05:27:09;16.70;99.90
10046;DHT22;5063;50.878;4.742;2023-07-13T05:29:35;16.80;99.90
10046;DHT22;5063;50.878;4.742;2023-07-13T05:32:00;16.90;99.90
10046;DHT22;5063;50.878;4.742;2023-07-13T05:34:26;17.10;99.90
10046;DHT22;5063;50.878;4.742;2023-07-13T05:36:52;17.10;99.90
10046;DHT22;5063;50.878;4.742;2023-07-13T05:39:18;17.10;99.90
10046;DHT22;5063;50.878;4.742;2023-07-13T05:41:44;17.30;99.90
10046;DHT22;5063;50.878;4.742;2023-07-13T05:44:10;17.50;99.90
10046;DHT22;5063;50.878;4.742;2023-07-13T05:46:36;17.60;99.90
10046;DHT22;5063;50.878;4.742;2023-07-13T05:49:01;17.70;99.90
10046;DHT22;5063;50.878;4.742;2023-07-13T05:51:29;17.90;99.90
10046;DHT22;5063;50.878;4.742;2023-07-13T05:53:54;18.00;99.90
10046;DHT22;5063;50.878;4.742;2023-07-13T05:56:20;18.20;99.90
10046;DHT22;5063;50.878;4.742;2023-07-13T05:58:48;18.20;99.90
10046;DHT22;5063;50.878;4.742;2023-07-13T06:01:15;18.30;99.90
10046;DHT22;5063;50.878;4.742;2023-07-13T06:03:40;18.20;99.90
10046;DHT22;5063;50.878;4.742;2023-07-13T06:06:08;18.30;99.90
10046;DHT22;5063;50.878;4.742;2023-07-13T06:08:35;18.20;99.90
10046;DHT22;5063;50.878;4.742;2023-07-13T06:11:15;18.10;99.90
10046;DHT22;5063;50.878;4.742;2023-07-13T06:13:42;18.00;99.90
10046;DHT22;5063;50.878;4.742;2023-07-13T06:16:08;18.00;99.90
10046;DHT22;5063;50.878;4.742;2023-07-13T06:18:35;18.00;99.90
10046;DHT22;5063;50.878;4.742;2023-07-13T06:21:10;18.00;99.90
10046;DHT22;5063;50.878;4.742;2023-07-13T06:23:36;18.20;99.90
10046;DHT22;5063;50.878;4.742;2023-07-13T06:26:03;18.30;99.90
10046;DHT22;5063;50.878;4.742;2023-07-13T06:28:29;18.40;99.90
10046;DHT22;5063;50.878;4.742;2023-07-13T06:30:57;18.50;99.90
10046;DHT22;5063;50.878;4.742;2023-07-13T06:33:23;18.70;99.90
10046;DHT22;5063;50.878;4.742;2023-07-13T06:35:49;18.80;99.90
10046;DHT22;5063;50.878;4.742;2023-07-13T06:38:15;18.90;99.90
10046;DHT22;5063;50.878;4.742;2023-07-13T06:40:41;19.00;99.90
10046;DHT22;5063;50.878;4.742;2023-07-13T06:43:07;19.20;99.90
10046;DHT22;5063;50.878;4.742;2023-07-13T06:45:41;19.20;99.90
10046;DHT22;5063;50.878;4.742;2023-07-13T06:48:07;19.20;99.90
10046;DHT22;5063;50.878;4.742;2023-07-13T06:50:33;19.40;99.90
10046;DHT22;5063;50.878;4.742;2023-07-13T06:52:59;19.70;99.90
10046;DHT22;5063;50.878;4.742;2023-07-13T06:55:25;19.90;99.90
10046;DHT22;5063;50.878;4.742;2023-07-13T06:57:51;19.80;99.90
10046;DHT22;5063;50.878;4.742;2023-07-13T07:00:17;19.90;99.90
10046;DHT22;5063;50.878;4.742;2023-07-13T07:02:43;20.10;99.90
10046;DHT22;5063;50.878;4.742;2023-07-13T07:05:09;20.20;99.90
10046;DHT22;5063;50.878;4.742;2023-07-13T07:07:35;20.30;99.90
10046;DHT22;5063;50.878;4.742;2023-07-13T07:10:00;20.80;99.90
10046;DHT22;5063;50.878;4.742;2023-07-13T07:12:27;21.10;99.90
10046;DHT22;5063;50.878;4.742;2023-07-13T07:14:53;21.20;99.90
10046;DHT22;5063;50.878;4.742;2023-07-13T07:17:19;21.30;99.90
10046;DHT22;5063;50.878;4.742;2023-07-13T07:19:44;21.90;99.90
10046;DHT22;5063;50.878;4.742;2023-07-13T07:22:10;22.40;99.90
10046;DHT22;5063;50.878;4.742;2023-07-13T07:24:36;23.10;99.90
10046;DHT22;5063;50.878;4.742;2023-07-13T07:27:02;23.50;99.90
10046;DHT22;5063;50.878;4.742;2023-07-13T07:29:28;23.60;99.90
10046;DHT22;5063;50.878;4.742;2023-07-13T07:31:53;23.40;99.90
10046;DHT22;5063;50.878;4.742;2023-07-13T07:34:19;23.00;99.90
10046;DHT22;5063;50.878;4.742;2023-07-13T07:36:45;23.10;99.90
10046;DHT22;5063;50.878;4.742;2023-07-13T07:39:11;23.60;99.90
10046;DHT22;5063;50.878;4.742;2023-07-13T07:41:37;23.90;99.90
10046;DHT22;5063;50.878;4.742;2023-07-13T07:44:04;24.10;99.90
10046;DHT22;5063;50.878;4.742;2023-07-13T07:46:30;24.60;99.90
10046;DHT22;5063;50.878;4.742;2023-07-13T07:48:56;24.60;99.90
10046;DHT22;5063;50.878;4.742;2023-07-13T07:51:22;24.40;99.90
10046;DHT22;5063;50.878;4.742;2023-07-13T07:53:48;23.90;99.90
10046;DHT22;5063;50.878;4.742;2023-07-13T07:56:14;23.50;99.90
10046;DHT22;5063;50.878;4.742;2023-07-13T07:58:42;23.30;99.90
10046;DHT22;5063;50.878;4.742;2023-07-13T08:01:08;22.50;99.90
10046;DHT22;5063;50.878;4.742;2023-07-13T08:03:34;22.20;99.90
10046;DHT22;5063;50.878;4.742;2023-07-13T08:06:00;22.30;99.90
10046;DHT22;5063;50.878;4.742;2023-07-13T08:08:26;22.40;99.90
10046;DHT22;5063;50.878;4.742;2023-07-13T08:10:52;22.80;99.90
10046;DHT22;5063;50.878;4.742;2023-07-13T08:13:18;23.10;99.90
10046;DHT22;5063;50.878;4.742;2023-07-13T08:15:44;23.00;99.90
10046;DHT22;5063;50.878;4.742;2023-07-13T08:18:11;22.90;99.90
10046;DHT22;5063;50.878;4.742;2023-07-13T08:20:40;23.20;99.90
10046;DHT22;5063;50.878;4.742;2023-07-13T08:23:07;23.60;99.90
10046;DHT22;5063;50.878;4.742;2023-07-13T08:25:33;24.20;99.90
10046;DHT22;5063;50.878;4.742;2023-07-13T08:27:59;25.40;99.90
10046;DHT22;5063;50.878;4.742;2023-07-13T08:30:25;26.50;99.90
10046;DHT22;5063;50.878;4.742;2023-07-13T08:32:51;26.60;99.90
10046;DHT22;5063;50.878;4.742;2023-07-13T08:35:16;27.60;99.90
10046;DHT22;5063;50.878;4.742;2023-07-13T08:37:42;28.40;99.90
10046;DHT22;5063;50.878;4.742;2023-07-13T08:40:10;29.00;99.90
10046;DHT22;5063;50.878;4.742;2023-07-13T08:42:46;29.30;99.90
10046;DHT22;5063;50.878;4.742;2023-07-13T08:45:32;28.10;99.90
10046;DHT22;5063;50.878;4.742;2023-07-13T08:48:21;27.00;99.90
10046;DHT22;5063;50.878;4.742;2023-07-13T08:53:21;26.50;99.90
10046;DHT22;5063;50.878;4.742;2023-07-13T08:55:53;25.90;99.90
10046;DHT22;5063;50.878;4.742;2023-07-13T08:58:21;25.00;99.90
10046;DHT22;5063;50.878;4.742;2023-07-13T09:03:20;26.00;99.90
10046;DHT22;5063;50.878;4.742;2023-07-13T09:05:53;27.60;99.90
10046;DHT22;5063;50.878;4.742;2023-07-13T09:11:32;28.70;99.90
10046;DHT22;5063;50.878;4.742;2023-07-13T09:14:53;29.50;99.90
10046;DHT22;5063;50.878;4.742;2023-07-13T09:16:54;29.60;99.90
10046;DHT22;5063;50.878;4.742;2023-07-13T09:19:28;28.20;99.90
10046;DHT22;5063;50.878;4.742;2023-07-13T09:21:56;26.70;99.90
10046;DHT22;5063;50.878;4.742;2023-07-13T09:27:09;25.90;99.90
10046;DHT22;5063;50.878;4.742;2023-07-13T09:29:41;26.80;99.90
10046;DHT22;5063;50.878;4.742;2023-07-13T09:32:12;27.20;99.90
10046;DHT22;5063;50.878;4.742;2023-07-13T09:34:40;27.70;99.90
10046;DHT22;5063;50.878;4.742;2023-07-13T09:37:06;28.00;99.90
10046;DHT22;5063;50.878;4.742;2023-07-13T09:39:36;27.90;99.90
10046;DHT22;5063;50.878;4.742;2023-07-13T09:42:16;28.20;99.90
10046;DHT22;5063;50.878;4.742;2023-07-13T09:44:52;28.30;99.90
10046;DHT22;5063;50.878;4.742;2023-07-13T09:47:30;28.90;99.90
10046;DHT22;5063;50.878;4.742;2023-07-13T09:50:09;28.50;99.90
10046;DHT22;5063;50.878;4.742;2023-07-13T09:52:45;27.30;99.90
10046;DHT22;5063;50.878;4.742;2023-07-13T09:55:29;26.50;99.90
10046;DHT22;5063;50.878;4.742;2023-07-13T09:57:55;26.60;99.90
10046;DHT22;5063;50.878;4.742;2023-07-13T10:00:29;26.60;99.90
10046;DHT22;5063;50.878;4.742;2023-07-13T10:03:13;26.10;99.90
10046;DHT22;5063;50.878;4.742;2023-07-13T10:05:43;26.00;99.90
10046;DHT22;5063;50.878;4.742;2023-07-13T10:08:25;25.90;99.90
10046;DHT22;5063;50.878;4.742;2023-07-13T10:11:20;25.90;99.90
10046;DHT22;5063;50.878;4.742;2023-07-13T10:14:02;25.80;99.90
10046;DHT22;5063;50.878;4.742;2023-07-13T10:16:35;26.00;99.90
10046;DHT22;5063;50.878;4.742;2023-07-13T10:19:31;25.90;99.90
10046;DHT22;5063;50.878;4.742;2023-07-13T10:24:59;25.70;99.90
10046;DHT22;5063;50.878;4.742;2023-07-13T10:27:33;25.50;99.90
10046;DHT22;5063;50.878;4.742;2023-07-13T10:30:24;25.60;99.90
10046;DHT22;5063;50.878;4.742;2023-07-13T10:32:59;25.80;99.90
10046;DHT22;5063;50.878;4.742;2023-07-13T10:35:27;26.00;99.90
10046;DHT22;5063;50.878;4.742;2023-07-13T10:38:05;26.30;99.90
10046;DHT22;5063;50.878;4.742;2023-07-13T10:43:09;26.10;99.90
10046;DHT22;5063;50.878;4.742;2023-07-13T10:45:38;25.70;99.90
10046;DHT22;5063;50.878;4.742;2023-07-13T10:48:06;25.20;99.90
10046;DHT22;5063;50.878;4.742;2023-07-13T10:50:38;25.20;99.90
10046;DHT22;5063;50.878;4.742;2023-07-13T10:58:28;25.30;99.90
10046;DHT22;5063;50.878;4.742;2023-07-13T11:03:35;25.80;99.90
10046;DHT22;5063;50.878;4.742;2023-07-13T11:06:43;25.50;99.90
10046;DHT22;5063;50.878;4.742;2023-07-13T11:09:36;25.20;99.90
10046;DHT22;5063;50.878;4.742;2023-07-13T11:12:25;25.20;99.90
10046;DHT22;5063;50.878;4.742;2023-07-13T11:22:50;25.80;99.90
10046;DHT22;5063;50.878;4.742;2023-07-13T11:25:30;26.00;99.90
10046;DHT22;5063;50.878;4.742;2023-07-13T11:36:15;25.60;99.90
10046;DHT22;5063;50.878;4.742;2023-07-13T11:38:43;25.50;99.90
10046;DHT22;5063;50.878;4.742;2023-07-13T11:41:19;25.20;99.90
10046;DHT22;5063;50.878;4.742;2023-07-13T11:43:50;25.30;99.90
10046;DHT22;5063;50.878;4.742;2023-07-13T11:46:22;25.50;99.90
10046;DHT22;5063;50.878;4.742;2023-07-13T11:48:49;25.50;99.90
10046;DHT22;5063;50.878;4.742;2023-07-13T11:51:30;25.50;99.90
10046;DHT22;5063;50.878;4.742;2023-07-13T11:54:01;25.40;99.90
10046;DHT22;5063;50.878;4.742;2023-07-13T11:56:28;25.70;99.90
10046;DHT22;5063;50.878;4.742;2023-07-13T11:58:59;26.00;99.90
10046;DHT22;5063;50.878;4.742;2023-07-13T12:01:31;25.80;99.90
10046;DHT22;5063;50.878;4.742;2023-07-13T12:04:02;25.80;99.90
10046;DHT22;5063;50.878;4.742;2023-07-13T12:06:34;26.30;99.90
10046;DHT22;5063;50.878;4.742;2023-07-13T12:09:09;26.40;99.90
10046;DHT22;5063;50.878;4.742;2023-07-13T12:11:41;26.00;99.90
10046;DHT22;5063;50.878;4.742;2023-07-13T12:14:14;25.80;99.90
10046;DHT22;5063;50.878;4.742;2023-07-13T12:16:40;25.70;99.90
10046;DHT22;5063;50.878;4.742;2023-07-13T12:19:29;25.30;99.90
10046;DHT22;5063;50.878;4.742;2023-07-13T12:21:59;25.20;99.90
10046;DHT22;5063;50.878;4.742;2023-07-13T12:24:25;24.70;99.90
10046;DHT22;5063;50.878;4.742;2023-07-13T12:27:00;24.50;99.90
10046;DHT22;5063;50.878;4.742;2023-07-13T12:29:27;24.40;99.90
10046;DHT22;5063;50.878;4.742;2023-07-13T12:31:53;24.50;99.90
10046;DHT22;5063;50.878;4.742;2023-07-13T12:34:20;24.40;99.90
10046;DHT22;5063;50.878;4.742;2023-07-13T12:36:55;24.40;99.90
10046;DHT22;5063;50.878;4.742;2023-07-13T12:39:28;24.60;99.90
10046;DHT22;5063;50.878;4.742;2023-07-13T12:42:25;24.50;99.90
10046;DHT22;5063;50.878;4.742;2023-07-13T12:45:17;24.40;99.90
10046;DHT22;5063;50.878;4.742;2023-07-13T12:47:47;24.30;99.90
10046;DHT22;5063;50.878;4.742;2023-07-13T12:50:19;24.20;99.90
10046;DHT22;5063;50.878;4.742;2023-07-13T12:52:55;24.30;99.90
10046;DHT22;5063;50.878;4.742;2023-07-13T12:55:22;24.30;99.90
10046;DHT22;5063;50.878;4.742;2023-07-13T12:57:56;24.30;99.90
10046;DHT22;5063;50.878;4.742;2023-07-13T13:00:34;23.70;99.90
10046;DHT22;5063;50.878;4.742;2023-07-13T13:05:38;22.10;99.90
10046;DHT22;5063;50.878;4.742;2023-07-13T13:08:04;22.00;99.90
10046;DHT22;5063;50.878;4.742;2023-07-13T13:10:30;22.20;99.90
10046;DHT22;5063;50.878;4.742;2023-07-13T13:12:55;22.50;99.90
10046;DHT22;5063;50.878;4.742;2023-07-13T13:15:21;21.90;99.90
10046;DHT22;5063;50.878;4.742;2023-07-13T13:17:49;21.50;99.90
10046;DHT22;5063;50.878;4.742;2023-07-13T13:20:19;21.10;99.90
10046;DHT22;5063;50.878;4.742;2023-07-13T13:22:46;20.90;99.90
10046;DHT22;5063;50.878;4.742;2023-07-13T13:25:12;20.50;99.90
10046;DHT22;5063;50.878;4.742;2023-07-13T13:27:41;20.50;99.90
10046;DHT22;5063;50.878;4.742;2023-07-13T13:30:11;20.40;99.90
10046;DHT22;5063;50.878;4.742;2023-07-13T13:32:46;20.40;99.90
10046;DHT22;5063;50.878;4.742;2023-07-13T13:35:20;20.60;99.90
10046;DHT22;5063;50.878;4.742;2023-07-13T13:37:46;20.60;99.90
10046;DHT22;5063;50.878;4.742;2023-07-13T13:40:19;20.70;99.90
10046;DHT22;5063;50.878;4.742;2023-07-13T13:42:46;20.70;99.90
10046;DHT22;5063;50.878;4.742;2023-07-13T13:45:12;20.80;99.90
10046;DHT22;5063;50.878;4.742;2023-07-13T13:47:39;20.90;99.90
10046;DHT22;5063;50.878;4.742;2023-07-13T13:50:23;21.10;99.90
10046;DHT22;5063;50.878;4.742;2023-07-13T13:52:49;21.80;99.90
10046;DHT22;5063;50.878;4.742;2023-07-13T13:55:20;22.40;99.90
10046;DHT22;5063;50.878;4.742;2023-07-13T13:57:47;23.10;99.90
10046;DHT22;5063;50.878;4.742;2023-07-13T14:00:14;23.50;99.90
10046;DHT22;5063;50.878;4.742;2023-07-13T14:02:46;23.60;99.90
10046;DHT22;5063;50.878;4.742;2023-07-13T14:05:15;23.60;99.90
10046;DHT22;5063;50.878;4.742;2023-07-13T14:07:43;23.80;99.90
10046;DHT22;5063;50.878;4.742;2023-07-13T14:10:15;24.00;99.90
10046;DHT22;5063;50.878;4.742;2023-07-13T14:12:51;24.10;99.90
10046;DHT22;5063;50.878;4.742;2023-07-13T14:15:26;24.10;99.90
10046;DHT22;5063;50.878;4.742;2023-07-13T14:17:53;24.20;99.90
10046;DHT22;5063;50.878;4.742;2023-07-13T14:20:21;24.30;99.90
10046;DHT22;5063;50.878;4.742;2023-07-13T14:22:50;24.50;99.90
10046;DHT22;5063;50.878;4.742;2023-07-13T14:25:17;24.80;99.90
10046;DHT22;5063;50.878;4.742;2023-07-13T14:27:45;24.90;99.90
10046;DHT22;5063;50.878;4.742;2023-07-13T14:30:15;25.10;99.90
10046;DHT22;5063;50.878;4.742;2023-07-13T14:32:42;25.40;99.90
10046;DHT22;5063;50.878;4.742;2023-07-13T14:35:13;25.30;99.90
10046;DHT22;5063;50.878;4.742;2023-07-13T14:37:40;25.50;99.90
10046;DHT22;5063;50.878;4.742;2023-07-13T14:40:28;25.60;99.90
10046;DHT22;5063;50.878;4.742;2023-07-13T14:42:54;25.80;99.90
10046;DHT22;5063;50.878;4.742;2023-07-13T14:45:20;25.60;99.90
10046;DHT22;5063;50.878;4.742;2023-07-13T14:47:47;25.50;99.90
10046;DHT22;5063;50.878;4.742;2023-07-13T14:50:23;25.60;99.90
10046;DHT22;5063;50.878;4.742;2023-07-13T14:52:50;25.90;99.90
10046;DHT22;5063;50.878;4.742;2023-07-13T14:55:18;26.10;99.90
10046;DHT22;5063;50.878;4.742;2023-07-13T14:57:45;26.00;99.90
10046;DHT22;5063;50.878;4.742;2023-07-13T15:00:21;25.90;99.90
10046;DHT22;5063;50.878;4.742;2023-07-13T15:02:52;25.90;99.90
10046;DHT22;5063;50.878;4.742;2023-07-13T15:05:25;25.80;99.90
10046;DHT22;5063;50.878;4.742;2023-07-13T15:07:52;25.50;99.90
10046;DHT22;5063;50.878;4.742;2023-07-13T15:10:27;25.10;99.90
10046;DHT22;5063;50.878;4.742;2023-07-13T15:12:59;24.80;99.90
10046;DHT22;5063;50.878;4.742;2023-07-13T15:15:27;24.70;99.90
10046;DHT22;5063;50.878;4.742;2023-07-13T15:17:53;24.70;99.90
10046;DHT22;5063;50.878;4.742;2023-07-13T15:22:48;24.40;99.90
10046;DHT22;5063;50.878;4.742;2023-07-13T15:25:17;24.30;99.90
10046;DHT22;5063;50.878;4.742;2023-07-13T15:27:43;24.20;99.90
10046;DHT22;5063;50.878;4.742;2023-07-13T15:30:10;25.00;99.90
10046;DHT22;5063;50.878;4.742;2023-07-13T15:32:35;25.60;99.90
10046;DHT22;5063;50.878;4.742;2023-07-13T15:35:01;25.80;99.90
10046;DHT22;5063;50.878;4.742;2023-07-13T15:37:28;25.80;99.90
10046;DHT22;5063;50.878;4.742;2023-07-13T15:39:53;25.80;99.90
10046;DHT22;5063;50.878;4.742;2023-07-13T15:42:20;25.60;99.90
10046;DHT22;5063;50.878;4.742;2023-07-13T15:44:47;25.60;99.90
10046;DHT22;5063;50.878;4.742;2023-07-13T15:47:14;25.20;99.90
10046;DHT22;5063;50.878;4.742;2023-07-13T15:49:40;25.20;99.90
10046;DHT22;5063;50.878;4.742;2023-07-13T15:52:25;24.90;99.90
10046;DHT22;5063;50.878;4.742;2023-07-13T15:54:51;24.90;99.90
10046;DHT22;5063;50.878;4.742;2023-07-13T15:57:17;25.10;99.90
10046;DHT22;5063;50.878;4.742;2023-07-13T15:59:43;25.10;99.90
10046;DHT22;5063;50.878;4.742;2023-07-13T16:02:14;25.80;99.90
10046;DHT22;5063;50.878;4.742;2023-07-13T16:04:41;26.50;99.90
10046;DHT22;5063;50.878;4.742;2023-07-13T16:07:13;27.30;99.90
10046;DHT22;5063;50.878;4.742;2023-07-13T16:09:40;27.90;99.90
10046;DHT22;5063;50.878;4.742;2023-07-13T16:12:13;28.00;99.90
10046;DHT22;5063;50.878;4.742;2023-07-13T16:14:40;28.40;99.90
10046;DHT22;5063;50.878;4.742;2023-07-13T16:17:10;28.40;99.90
10046;DHT22;5063;50.878;4.742;2023-07-13T16:19:36;28.10;99.90
10046;DHT22;5063;50.878;4.742;2023-07-13T16:22:02;28.20;99.90
10046;DHT22;5063;50.878;4.742;2023-07-13T16:24:31;28.10;99.90
10046;DHT22;5063;50.878;4.742;2023-07-13T16:26:57;27.70;99.90
10046;DHT22;5063;50.878;4.742;2023-07-13T16:29:28;27.70;99.90
10046;DHT22;5063;50.878;4.742;2023-07-13T16:34:23;27.40;99.90
10046;DHT22;5063;50.878;4.742;2023-07-13T16:36:49;27.30;99.90
10046;DHT22;5063;50.878;4.742;2023-07-13T16:39:15;27.50;99.90
10046;DHT22;5063;50.878;4.742;2023-07-13T16:41:41;27.60;99.90
10046;DHT22;5063;50.878;4.742;2023-07-13T16:44:11;27.40;99.90
10046;DHT22;5063;50.878;4.742;2023-07-13T16:46:38;27.40;99.90